CheckWX is a tool to help pilots better visualize weather data.  It is not intended as a substitute for an official pre-flight weather briefing.

09:36:28 UTC

KADU METAR
Audubon County Airport
Audubon, Iowa, USA
Current

21 mins ago

KADU 230915Z AUTO 00000KT 10SM CLR 11/10 A3029 RMK AO2
Observed
Jul-23 @ 09:15 UTC
Visibility
10 SM
Flight Rules
VFR
Cloud Levels
  • Clear skies
Temperature
11°C / 52°F
Dewpoint
10°C / 50°F
Humidity
94%
Altimeter
30.29" Hg
Pressure
1025.72 hPa
Previous

41 mins ago

KADU 230855Z AUTO 00000KT 10SM CLR 12/10 A3029 RMK AO2
Observed
Jul-23 @ 08:55 UTC
Visibility
10 SM
Flight Rules
VFR
Cloud Levels
  • Clear skies
Temperature
12°C / 54°F
Dewpoint
10°C / 50°F
Humidity
88%
Altimeter
30.29" Hg
Pressure
1025.72 hPa
Previous

1 hour ago

KADU 230835Z AUTO 00000KT 10SM CLR 12/11 A3029 RMK AO2
Observed
Jul-23 @ 08:35 UTC
Visibility
10 SM
Flight Rules
VFR
Cloud Levels
  • Clear skies
Temperature
12°C / 54°F
Dewpoint
11°C / 52°F
Humidity
94%
Altimeter
30.29" Hg
Pressure
1025.72 hPa